createdAt,value
2022-09-20T00:01:11.617Z,7.77
2022-09-20T00:04:17.161Z,7.73
2022-09-20T00:07:22.702Z,7.76
2022-09-20T00:10:31.269Z,7.84
2022-09-20T00:13:39.568Z,7.84
2022-09-20T00:16:47.754Z,7.89
2022-09-20T00:19:57.030Z,7.85
2022-09-20T00:23:02.572Z,7.84
2022-09-20T00:26:08.600Z,7.81
2022-09-20T00:29:14.159Z,7.81
2022-09-20T00:32:22.492Z,7.76
2022-09-20T00:35:25.818Z,7.71
2022-09-20T00:38:31.354Z,7.68
2022-09-20T00:41:37.964Z,7.68
2022-09-20T00:44:56.726Z,7.74
2022-09-20T00:48:16.306Z,7.72
2022-09-20T00:51:31.736Z,7.63
2022-09-20T00:54:37.712Z,7.68
2022-09-20T00:57:45.756Z,7.57
2022-09-20T01:01:00.813Z,7.60
2022-09-20T01:04:12.422Z,7.66
2022-09-20T01:07:25.266Z,7.62
2022-09-20T01:10:30.988Z,7.61
2022-09-20T01:13:36.546Z,7.60
2022-09-20T01:16:42.688Z,7.63
2022-09-20T01:20:16.258Z,7.65
2022-09-20T01:23:51.778Z,7.67
2022-09-20T01:27:26.096Z,7.65
2022-09-20T01:30:46.763Z,7.58
2022-09-20T01:34:01.607Z,7.60
2022-09-20T01:37:19.442Z,7.59
2022-09-20T01:40:41.853Z,7.62
2022-09-20T01:43:58.756Z,7.66
2022-09-20T01:47:21.272Z,7.62
2022-09-20T01:50:42.172Z,7.52
2022-09-20T01:54:40.216Z,7.50
2022-09-20T01:58:29.624Z,7.60
2022-09-20T02:02:20.127Z,7.52
2022-09-20T02:06:29.805Z,7.57
2022-09-20T02:10:22.002Z,7.52
2022-09-20T02:13:36.540Z,7.51
2022-09-20T02:16:53.442Z,7.38
2022-09-20T02:20:26.204Z,7.38
2022-09-20T02:23:54.429Z,7.42
2022-09-20T02:27:24.821Z,7.48
2022-09-20T02:30:48.867Z,7.42
2022-09-20T02:34:35.608Z,7.47
2022-09-20T02:38:09.962Z,7.47
2022-09-20T02:41:54.492Z,7.52
2022-09-20T02:45:12.786Z,7.57
2022-09-20T02:48:30.605Z,7.44
2022-09-20T02:51:47.689Z,7.41
2022-09-20T02:55:10.510Z,7.43
2022-09-20T02:58:39.098Z,7.51
2022-09-20T03:01:59.840Z,7.49
2022-09-20T03:05:25.324Z,7.51
2022-09-20T03:08:50.647Z,7.32
2022-09-20T03:12:17.930Z,7.39
2022-09-20T03:15:51.119Z,7.47
2022-09-20T03:19:29.325Z,7.43
2022-09-20T03:22:54.362Z,7.43
2022-09-20T03:26:21.533Z,7.43
2022-09-20T03:29:55.936Z,7.37
2022-09-20T03:33:17.040Z,7.34
2022-09-20T03:37:00.443Z,7.34
2022-09-20T03:40:47.568Z,7.45
2022-09-20T03:44:25.537Z,7.41
2022-09-20T03:48:06.200Z,7.47
2022-09-20T03:51:34.334Z,7.37
2022-09-20T03:55:30.422Z,7.43
2022-09-20T03:59:15.807Z,7.52
2022-09-20T04:02:47.796Z,7.37
2022-09-20T04:06:34.293Z,7.41
2022-09-20T04:10:27.141Z,7.34
2022-09-20T04:14:11.256Z,7.40
2022-09-20T04:17:39.108Z,7.42
2022-09-20T04:20:58.148Z,7.45
2022-09-20T04:24:16.515Z,7.55
2022-09-20T04:27:31.537Z,7.49
2022-09-20T04:30:46.432Z,7.51
2022-09-20T04:33:59.935Z,7.50
2022-09-20T04:37:32.398Z,7.47
2022-09-20T04:41:38.171Z,7.47
2022-09-20T04:46:03.661Z,7.53
2022-09-20T04:49:59.718Z,7.60
2022-09-20T04:53:57.630Z,7.54
2022-09-20T04:57:48.121Z,7.59
2022-09-20T05:01:47.679Z,7.64
2022-09-20T05:05:41.396Z,7.60
2022-09-20T05:09:25.561Z,7.46
2022-09-20T05:13:08.208Z,7.50
2022-09-20T05:16:34.145Z,7.57
2022-09-20T05:20:12.766Z,7.63
2022-09-20T05:23:49.640Z,7.72
2022-09-20T05:27:37.162Z,7.67
2022-09-20T05:30:52.063Z,7.71
2022-09-20T05:34:12.872Z,7.83
2022-09-20T05:37:43.916Z,7.94
2022-09-20T05:41:21.327Z,8.02
2022-09-20T05:44:56.926Z,8.06
2022-09-20T05:48:16.415Z,8.06
2022-09-20T05:51:48.437Z,7.96
2022-09-20T05:55:31.327Z,7.97
2022-09-20T05:59:04.130Z,8.08
2022-09-20T06:02:40.318Z,8.00
2022-09-20T06:06:15.578Z,8.18
2022-09-20T06:09:54.922Z,8.23
2022-09-20T06:13:26.550Z,8.25
2022-09-20T06:16:46.393Z,8.30
2022-09-20T06:20:22.095Z,8.31
2022-09-20T06:23:32.142Z,8.44
2022-09-20T06:26:40.994Z,8.51
2022-09-20T06:29:57.880Z,8.53
2022-09-20T06:33:16.821Z,8.40
2022-09-20T06:36:48.061Z,8.47
2022-09-20T06:40:18.293Z,8.50
2022-09-20T06:43:24.204Z,8.53
2022-09-20T06:46:34.916Z,8.66
2022-09-20T06:49:42.538Z,8.67
2022-09-20T06:52:52.727Z,8.69
2022-09-20T06:56:00.452Z,8.48
2022-09-20T06:59:08.700Z,8.49
2022-09-20T07:02:14.384Z,8.28
2022-09-20T07:05:22.249Z,8.42
2022-09-20T07:08:30.599Z,8.47
2022-09-20T07:11:36.234Z,8.51
2022-09-20T07:14:43.240Z,8.67
2022-09-20T07:17:49.177Z,8.73
2022-09-20T07:20:54.682Z,8.61
2022-09-20T07:24:02.882Z,8.56
2022-09-20T07:27:09.482Z,8.56
2022-09-20T07:30:18.742Z,8.52
2022-09-20T07:33:25.313Z,8.47
2022-09-20T07:36:30.845Z,8.58
2022-09-20T07:39:38.960Z,8.72
2022-09-20T07:42:46.216Z,8.89
2022-09-20T07:45:56.140Z,8.93
2022-09-20T07:49:01.718Z,8.99
2022-09-20T07:52:07.938Z,9.14
2022-09-20T07:55:16.029Z,9.28
2022-09-20T07:58:21.724Z,9.31
2022-09-20T08:01:27.245Z,9.37
2022-09-20T08:04:32.917Z,9.41
2022-09-20T08:07:38.844Z,9.26
2022-09-20T08:10:48.764Z,9.26
2022-09-20T08:14:06.269Z,9.38
2022-09-20T08:17:13.516Z,9.40
2022-09-20T08:20:19.739Z,9.31
2022-09-20T08:23:25.346Z,9.24
2022-09-20T08:26:36.836Z,9.45
2022-09-20T08:29:42.632Z,9.63
2022-09-20T08:32:48.374Z,9.65
2022-09-20T08:35:57.789Z,9.64
2022-09-20T08:42:43.841Z,9.80
2022-09-20T08:45:50.645Z,9.90
2022-09-20T08:48:57.789Z,10.13
2022-09-20T08:52:10.368Z,10.62
2022-09-20T08:55:20.131Z,11.52
2022-09-20T08:58:30.141Z,11.73
2022-09-20T09:01:35.968Z,11.81
2022-09-20T09:04:41.365Z,11.83
2022-09-20T09:07:46.953Z,11.76
2022-09-20T09:10:59.063Z,11.81
2022-09-20T09:14:26.694Z,11.84
2022-09-20T09:17:34.290Z,11.69
2022-09-20T09:20:47.488Z,11.77
2022-09-20T09:24:01.404Z,11.56
2022-09-20T09:27:17.980Z,11.49
2022-09-20T09:30:30.465Z,11.34
2022-09-20T09:33:37.728Z,11.00
2022-09-20T09:36:47.462Z,10.98
2022-09-20T09:40:19.309Z,10.80
2022-09-20T09:43:30.421Z,10.55
2022-09-20T09:46:42.228Z,10.44
2022-09-20T09:50:04.836Z,10.51
2022-09-20T09:53:18.397Z,10.59
2022-09-20T09:56:49.174Z,11.29
2022-09-20T10:00:23.857Z,12.51
2022-09-20T10:03:53.364Z,13.07
2022-09-20T10:07:12.754Z,13.31
2022-09-20T10:10:36.412Z,13.80
2022-09-20T10:14:03.751Z,14.17
2022-09-20T10:17:36.186Z,14.13
2022-09-20T10:21:10.347Z,13.72
2022-09-20T10:24:51.635Z,13.92
2022-09-20T10:28:23.914Z,14.43
2022-09-20T10:31:54.756Z,15.57
2022-09-20T10:35:23.055Z,14.53
2022-09-20T10:38:40.639Z,14.43
2022-09-20T10:42:16.555Z,15.20
2022-09-20T10:46:08.410Z,15.56
2022-09-20T10:49:48.449Z,16.68
2022-09-20T10:53:27.438Z,17.17
2022-09-20T10:56:40.509Z,17.82
2022-09-20T11:00:03.365Z,18.53
2022-09-20T11:03:40.311Z,17.43
2022-09-20T11:07:05.177Z,16.14
2022-09-20T11:10:36.372Z,15.94
2022-09-20T11:13:54.059Z,16.51
2022-09-20T11:17:09.714Z,15.38
2022-09-20T11:20:34.390Z,15.39
2022-09-20T11:23:54.444Z,15.50
2022-09-20T11:27:10.547Z,15.31
2022-09-20T11:30:24.689Z,15.22
2022-09-20T11:33:41.391Z,15.10
2022-09-20T11:36:59.151Z,15.83
2022-09-20T11:40:18.882Z,16.35
2022-09-20T11:43:29.289Z,15.32
2022-09-20T11:46:49.557Z,14.51
2022-09-20T11:50:51.171Z,15.31
2022-09-20T11:54:36.432Z,15.86
2022-09-20T11:57:43.361Z,16.25
2022-09-20T12:01:01.343Z,15.55
2022-09-20T12:04:40.722Z,14.89
2022-09-20T12:07:47.424Z,14.86
2022-09-20T12:11:07.269Z,14.62
2022-09-20T12:14:28.585Z,15.29
2022-09-20T12:18:25.638Z,16.02
2022-09-20T12:21:34.236Z,16.30
2022-09-20T12:24:45.810Z,16.73
2022-09-20T12:28:17.553Z,16.71
2022-09-20T12:31:49.203Z,16.65
2022-09-20T12:34:54.709Z,17.06
2022-09-20T12:38:28.013Z,17.62
2022-09-20T12:41:53.158Z,18.32
2022-09-20T12:45:08.457Z,18.21
2022-09-20T12:48:22.895Z,18.42
2022-09-20T12:51:50.436Z,17.74
2022-09-20T12:55:04.726Z,17.50
2022-09-20T12:58:29.907Z,17.67
2022-09-20T13:01:43.852Z,17.54
2022-09-20T13:05:12.369Z,17.50
2022-09-20T13:08:30.828Z,17.16
2022-09-20T13:11:47.759Z,16.99
2022-09-20T13:15:01.602Z,16.50
2022-09-20T13:18:10.149Z,16.00
2022-09-20T13:21:16.690Z,16.03
2022-09-20T13:24:23.826Z,15.34
2022-09-20T13:27:38.168Z,15.19
2022-09-20T13:30:43.717Z,14.99
2022-09-20T13:33:49.333Z,14.62
2022-09-20T13:37:01.666Z,14.59
2022-09-20T13:40:10.084Z,14.45
2022-09-20T13:43:31.170Z,14.16
2022-09-20T13:46:49.315Z,14.27
2022-09-20T13:49:54.955Z,13.77
2022-09-20T13:53:07.740Z,13.70
2022-09-20T13:56:22.595Z,13.72
2022-09-20T13:59:41.024Z,13.53
2022-09-20T14:02:46.815Z,13.51
2022-09-20T14:05:56.286Z,13.66
2022-09-20T14:09:11.500Z,13.48
2022-09-20T14:12:22.376Z,13.69
2022-09-20T14:15:38.978Z,13.62
2022-09-20T14:18:49.461Z,13.67
2022-09-20T14:21:55.603Z,13.83
2022-09-20T14:25:30.187Z,13.71
2022-09-20T14:28:45.005Z,13.70
2022-09-20T14:31:53.394Z,13.67
2022-09-20T14:35:08.291Z,13.70
2022-09-20T14:38:14.719Z,13.31
2022-09-20T14:41:33.284Z,13.38
2022-09-20T14:44:38.887Z,13.30
2022-09-20T14:48:09.532Z,13.07
2022-09-20T14:51:26.987Z,13.24
2022-09-20T14:54:35.135Z,13.30
2022-09-20T14:57:41.256Z,13.26
2022-09-20T15:00:58.053Z,13.27
2022-09-20T15:04:23.293Z,13.24
2022-09-20T15:07:29.264Z,13.31
2022-09-20T15:10:35.217Z,13.39
2022-09-20T15:13:40.787Z,13.31
2022-09-20T15:16:46.447Z,13.36
2022-09-20T15:19:55.332Z,13.42
2022-09-20T15:23:08.449Z,13.29
2022-09-20T15:26:17.150Z,13.16
2022-09-20T15:29:25.365Z,12.98
2022-09-20T15:32:31.671Z,12.83
2022-09-20T15:35:39.925Z,12.67
2022-09-20T15:38:45.908Z,12.43
2022-09-20T15:42:00.285Z,12.20
2022-09-20T15:45:17.692Z,11.94
2022-09-20T15:48:26.667Z,11.83
2022-09-20T15:51:36.390Z,11.65
2022-09-20T15:54:46.352Z,11.47
2022-09-20T15:57:51.989Z,11.29
2022-09-20T16:00:57.561Z,11.21
2022-09-20T16:04:11.868Z,11.12
2022-09-20T16:07:26.048Z,11.07
2022-09-20T16:10:31.881Z,11.09
2022-09-20T16:13:39.172Z,11.01
2022-09-20T16:16:44.941Z,10.94
2022-09-20T16:19:49.011Z,10.91
2022-09-20T16:22:57.480Z,10.79
2022-09-20T16:26:08.355Z,10.63
2022-09-20T16:29:16.838Z,10.57
2022-09-20T16:32:24.354Z,10.60
2022-09-20T16:35:29.990Z,10.61
2022-09-20T16:38:46.032Z,10.61
2022-09-20T16:41:53.252Z,10.55
2022-09-20T16:44:59.119Z,10.59
2022-09-20T16:48:08.589Z,10.46
2022-09-20T16:51:21.323Z,10.31
2022-09-20T16:54:35.944Z,10.14
2022-09-20T16:57:41.769Z,10.10
2022-09-20T17:00:48.447Z,9.95
2022-09-20T17:04:09.636Z,9.86
2022-09-20T17:07:16.064Z,9.82
2022-09-20T17:10:29.492Z,9.72
2022-09-20T17:13:36.410Z,9.68
2022-09-20T17:16:48.152Z,9.56
2022-09-20T17:19:54.510Z,9.32
2022-09-20T17:23:00.845Z,9.25
2022-09-20T17:26:16.858Z,9.10
2022-09-20T17:29:24.470Z,9.05
2022-09-20T17:32:30.022Z,9.00
2022-09-20T17:35:38.524Z,8.96
2022-09-20T17:38:50.496Z,8.91
2022-09-20T17:42:03.147Z,8.83
2022-09-20T17:45:12.734Z,8.88
2022-09-20T17:48:19.244Z,8.87
2022-09-20T17:51:28.534Z,8.88
2022-09-20T17:54:34.421Z,8.82
2022-09-20T17:57:42.590Z,8.66
2022-09-20T18:00:48.313Z,8.68
2022-09-20T18:03:54.462Z,8.65
2022-09-20T18:07:02.078Z,8.62
2022-09-20T18:10:08.893Z,8.41
2022-09-20T18:13:18.540Z,8.39
2022-09-20T18:16:24.593Z,8.37
2022-09-20T18:19:33.360Z,8.41
2022-09-20T18:22:39.155Z,8.45
2022-09-20T18:25:59.995Z,8.39
2022-09-20T18:29:18.390Z,8.46
2022-09-20T18:32:30.197Z,8.51
2022-09-20T18:35:37.601Z,8.61
2022-09-20T18:38:49.450Z,8.66
2022-09-20T18:41:56.286Z,8.72
2022-09-20T18:45:04.715Z,8.73
2022-09-20T18:48:10.463Z,8.75
2022-09-20T18:51:16.457Z,8.82
2022-09-20T18:54:22.859Z,8.82
2022-09-20T18:57:29.630Z,8.90
2022-09-20T19:00:39.262Z,8.95
2022-09-20T19:04:07.685Z,8.93
2022-09-20T19:07:28.261Z,8.88
2022-09-20T19:10:49.718Z,8.91
2022-09-20T19:14:07.997Z,8.84
2022-09-20T19:17:33.925Z,8.78
2022-09-20T19:20:51.555Z,8.78
2022-09-20T19:24:18.714Z,8.68
2022-09-20T19:27:25.960Z,8.63
2022-09-20T19:30:32.866Z,8.59
2022-09-20T19:33:45.625Z,8.60
2022-09-20T19:37:18.942Z,8.56
2022-09-20T19:40:41.433Z,8.49
2022-09-20T19:44:19.353Z,8.46
2022-09-20T19:47:42.562Z,8.41
2022-09-20T19:50:56.779Z,8.33
2022-09-20T19:54:06.386Z,8.32
2022-09-20T19:57:24.281Z,8.25
2022-09-20T20:00:31.609Z,8.11
2022-09-20T20:03:40.394Z,8.10
2022-09-20T20:07:07.275Z,8.02
2022-09-20T20:10:29.627Z,8.03
2022-09-20T20:14:01.444Z,7.94
2022-09-20T20:17:30.351Z,7.90
2022-09-20T20:20:46.850Z,7.82
2022-09-20T20:24:21.224Z,7.76
2022-09-20T20:27:31.828Z,7.65
2022-09-20T20:30:37.506Z,7.64
2022-09-20T20:33:44.128Z,7.75
2022-09-20T20:36:50.116Z,7.63
2022-09-20T20:39:58.341Z,7.62
2022-09-20T20:43:06.329Z,7.60
2022-09-20T20:46:15.780Z,7.54
2022-09-20T20:49:21.465Z,7.48
2022-09-20T20:52:27.167Z,7.51
2022-09-20T20:55:36.740Z,7.50
2022-09-20T20:58:45.980Z,7.54
2022-09-20T21:01:51.472Z,7.60
2022-09-20T21:04:57.067Z,7.60
2022-09-20T21:08:03.098Z,7.57
2022-09-20T21:11:14.845Z,7.54
2022-09-20T21:14:20.428Z,7.55
2022-09-20T21:17:26.118Z,7.54
2022-09-20T21:20:31.687Z,7.66
2022-09-20T21:23:38.566Z,7.67
2022-09-20T21:26:48.730Z,7.72
2022-09-20T21:29:54.672Z,7.67
2022-09-20T21:33:00.136Z,7.69
2022-09-20T21:36:09.120Z,7.68
2022-09-20T21:39:15.650Z,7.73
2022-09-20T21:42:27.443Z,7.78
2022-09-20T21:45:33.740Z,7.88
2022-09-20T21:48:39.420Z,7.92
2022-09-20T21:51:46.076Z,7.92
2022-09-20T21:54:52.725Z,7.90
2022-09-20T21:58:00.888Z,7.84
2022-09-20T22:01:10.219Z,7.87
2022-09-20T22:04:17.846Z,7.85
2022-09-20T22:07:23.467Z,7.75
2022-09-20T22:10:29.503Z,7.76
2022-09-20T22:13:41.906Z,7.74
2022-09-20T22:16:51.514Z,7.74
2022-09-20T22:19:57.129Z,7.75
2022-09-20T22:23:08.302Z,7.73
2022-09-20T22:26:18.900Z,7.73
2022-09-20T22:29:26.972Z,7.68
2022-09-20T22:32:50.632Z,7.68
2022-09-20T22:36:18.296Z,7.69
2022-09-20T22:39:40.447Z,7.61
2022-09-20T22:43:06.487Z,7.56
2022-09-20T22:46:17.228Z,7.59
2022-09-20T22:49:30.021Z,7.64
2022-09-20T22:52:37.680Z,7.56
2022-09-20T22:55:43.128Z,7.51
2022-09-20T22:58:52.050Z,7.49
2022-09-20T23:02:00.272Z,7.50
2022-09-20T23:05:06.568Z,7.45
2022-09-20T23:08:12.126Z,7.43
2022-09-20T23:11:19.295Z,7.39
2022-09-20T23:14:25.918Z,7.36
2022-09-20T23:17:34.022Z,7.31
2022-09-20T23:20:39.526Z,7.41
2022-09-20T23:23:45.768Z,7.36
2022-09-20T23:26:51.680Z,7.25
2022-09-20T23:29:57.298Z,7.26
2022-09-20T23:33:05.432Z,7.28
2022-09-20T23:36:13.492Z,7.31
2022-09-20T23:39:19.178Z,7.27
2022-09-20T23:42:24.744Z,7.22
2022-09-20T23:45:30.224Z,7.25
2022-09-20T23:48:41.556Z,7.22
2022-09-20T23:51:47.017Z,7.16
2022-09-20T23:54:52.512Z,7.09
2022-09-20T23:57:58.865Z,7.11
